Portada
METAR-TAF:

METAR-TAF

Aeropuertos :

Rasht, Irán

latitud: 37-12N, longitud: 049-38E, altitud: -7 m

Observación

El informe se hizo hace 10 minutos, a las 00:00 UTC
Viento 6 kt del oeste-suroeste
Temperatura 4°C
Humedad 93%
Presión 1029 hPa
Visibilidad: 5000 m
Cielo nuboso a una altura de 1000 ft
Escasas nubes a una altura de 1500 ft, Cumulonimbus.
Cielo cubierto a una altura de 6000 ft
lluvia ligera

METAR: OIGG 250000Z 24006KT 5000 -RA BKN010 FEW015CB OVC060 04/03 Q1029

Hora: 03:40 (00:10 UTC)


TAF: falta

Observaciones y pronósticos meteorológicos de más de 4000 aeropuertos (mensajes METAR y TAF).

Los puntos amarillos y rojos representan las estaciones disponibles.

Ponga el ratón en el punto deseado para ver el nombre de la estación.

Haga clic para ver las observaciones y los pronósticos meteorológicos.

Para cambiar el mapa : haga clic en los botones verdes con una cruz de color negro para hacer un zoom, en el botón verde con un guión para alejar o en las flechas verdes para mapas adyacentes.


METAR-TAF: